createdAt,value
2023-03-01T00:00:20.234Z,67.13
2023-03-01T00:01:20.235Z,66.92
2023-03-01T00:02:20.257Z,67.33
2023-03-01T00:03:20.258Z,67.54
2023-03-01T00:04:20.197Z,67.41
2023-03-01T00:05:20.184Z,67.10
2023-03-01T00:06:20.179Z,67.61
2023-03-01T00:07:20.184Z,67.51
2023-03-01T00:08:20.166Z,66.99
2023-03-01T00:09:20.167Z,66.68
2023-03-01T00:10:20.139Z,66.68
2023-03-01T00:11:20.225Z,66.89
2023-03-01T00:12:20.116Z,67.10
2023-03-01T00:13:20.125Z,67.51
2023-03-01T00:14:20.111Z,67.51
2023-03-01T00:15:20.083Z,67.41
2023-03-01T00:16:20.129Z,66.78
2023-03-01T00:17:20.060Z,67.51
2023-03-01T00:18:20.074Z,67.61
2023-03-01T00:19:20.048Z,67.82
2023-03-01T00:20:20.027Z,67.82
2023-03-01T00:21:20.019Z,67.82
2023-03-01T00:22:20.005Z,67.30
2023-03-01T00:23:20.011Z,67.30
2023-03-01T00:24:19.985Z,67.44
2023-03-01T00:25:19.997Z,67.93
2023-03-01T00:26:19.962Z,67.75
2023-03-01T00:27:19.958Z,67.61
2023-03-01T00:28:19.958Z,67.33
2023-03-01T00:29:19.944Z,67.75
2023-03-01T00:30:19.920Z,68.59
2023-03-01T00:31:19.910Z,67.65
2023-03-01T00:32:20.002Z,67.96
2023-03-01T00:33:19.937Z,68.41
2023-03-01T00:34:19.878Z,67.85
2023-03-01T00:35:19.937Z,68.27
2023-03-01T00:36:19.858Z,68.27
2023-03-01T00:37:19.849Z,67.75
2023-03-01T00:38:19.858Z,67.78
2023-03-01T00:39:19.836Z,68.48
2023-03-01T00:40:19.815Z,68.62
2023-03-01T00:41:19.834Z,68.93
2023-03-01T00:42:19.795Z,68.72
2023-03-01T00:43:19.846Z,68.79
2023-03-01T00:44:19.775Z,68.90
2023-03-01T00:45:19.767Z,68.79
2023-03-01T00:46:19.796Z,68.69
2023-03-01T00:47:19.745Z,69.03
2023-03-01T00:48:19.756Z,68.48
2023-03-01T00:49:19.730Z,68.48
2023-03-01T00:50:19.725Z,68.38
2023-03-01T00:51:19.711Z,68.69
2023-03-01T00:52:19.691Z,67.54
2023-03-01T00:53:19.739Z,67.57
2023-03-01T00:54:19.670Z,66.74
2023-03-01T00:55:19.661Z,66.53
2023-03-01T00:56:19.658Z,66.32
2023-03-01T00:57:19.668Z,66.35
2023-03-01T00:58:19.631Z,66.88
2023-03-01T00:59:19.618Z,66.98
2023-03-01T01:00:19.604Z,67.60
2023-03-01T01:01:19.698Z,67.53
2023-03-01T01:02:19.618Z,67.74
2023-03-01T01:03:19.592Z,67.81
2023-03-01T01:04:19.570Z,67.22
2023-03-01T01:05:19.551Z,67.22
2023-03-01T01:06:19.552Z,67.32
2023-03-01T01:07:19.531Z,67.74
2023-03-01T01:08:19.537Z,67.43
2023-03-01T01:09:19.513Z,67.95
2023-03-01T01:10:19.499Z,67.95
2023-03-01T01:11:19.486Z,67.32
2023-03-01T01:12:19.474Z,67.74
2023-03-01T01:13:19.513Z,67.88
2023-03-01T01:14:19.492Z,67.77
2023-03-01T01:15:19.444Z,67.77
2023-03-01T01:16:19.431Z,67.88
2023-03-01T01:17:19.425Z,67.77
2023-03-01T01:18:19.421Z,67.66
2023-03-01T01:19:19.419Z,68.29
2023-03-01T01:20:19.390Z,68.50
2023-03-01T01:21:19.383Z,68.19
2023-03-01T01:22:19.391Z,68.43
2023-03-01T01:23:19.358Z,68.53
2023-03-01T01:24:19.360Z,68.63
2023-03-01T01:25:19.340Z,68.92
2023-03-01T01:26:19.350Z,69.06
2023-03-01T01:27:19.311Z,69.23
2023-03-01T01:28:19.306Z,69.02
2023-03-01T01:29:19.342Z,69.34
2023-03-01T01:30:19.281Z,69.02
2023-03-01T01:31:19.321Z,68.82
2023-03-01T01:32:19.362Z,69.44
2023-03-01T01:33:19.258Z,69.02
2023-03-01T01:34:19.261Z,69.02
2023-03-01T01:35:19.269Z,68.71
2023-03-01T01:36:19.217Z,68.60
2023-03-01T01:37:19.207Z,69.23
2023-03-01T01:38:19.196Z,69.44
2023-03-01T01:39:19.233Z,70.07
2023-03-01T01:40:19.182Z,70.28
2023-03-01T01:41:19.163Z,70.28
2023-03-01T01:42:19.165Z,71.14
2023-03-01T01:43:19.145Z,72.19
2023-03-01T01:44:19.162Z,72.08
2023-03-01T01:45:19.146Z,73.13
2023-03-01T01:46:19.186Z,73.02
2023-03-01T01:47:19.097Z,73.24
2023-03-01T01:48:19.092Z,72.92
2023-03-01T01:49:19.100Z,73.55
2023-03-01T01:50:19.083Z,73.30
2023-03-01T01:51:19.064Z,72.78
2023-03-01T01:52:19.050Z,72.58
2023-03-01T01:53:19.040Z,72.26
2023-03-01T01:54:19.064Z,72.05
2023-03-01T01:55:19.032Z,71.84
2023-03-01T01:56:19.002Z,72.26
2023-03-01T01:57:19.009Z,71.95
2023-03-01T01:58:18.988Z,71.29
2023-03-01T01:59:18.987Z,71.19
2023-03-01T02:00:18.974Z,71.29
2023-03-01T02:01:18.980Z,70.98
2023-03-01T02:02:18.989Z,70.76
2023-03-01T02:03:19.110Z,70.59
2023-03-01T02:04:18.934Z,69.62
2023-03-01T02:05:18.922Z,69.96
2023-03-01T02:06:18.901Z,70.17
2023-03-01T02:07:18.898Z,69.93
2023-03-01T02:08:18.884Z,70.28
2023-03-01T02:09:18.886Z,70.07
2023-03-01T02:10:18.855Z,70.07
2023-03-01T02:11:18.843Z,69.96
2023-03-01T02:12:18.839Z,69.96
2023-03-01T02:13:18.825Z,69.86
2023-03-01T02:14:18.835Z,69.86
2023-03-01T02:15:18.804Z,70.28
2023-03-01T02:16:18.872Z,70.80
2023-03-01T02:17:18.805Z,70.80
2023-03-01T02:18:18.795Z,70.80
2023-03-01T02:19:18.783Z,70.80
2023-03-01T02:20:18.747Z,71.11
2023-03-01T02:21:18.747Z,71.01
2023-03-01T02:22:18.837Z,71.22
2023-03-01T02:23:18.715Z,71.11
2023-03-01T02:24:20.311Z,71.22
2023-03-01T02:25:18.700Z,71.22
2023-03-01T02:26:18.693Z,70.98
2023-03-01T02:27:18.675Z,71.01
2023-03-01T02:28:18.669Z,71.19
2023-03-01T02:29:18.679Z,70.90
2023-03-01T02:30:18.647Z,71.01
2023-03-01T02:31:18.661Z,70.14
2023-03-01T02:32:18.670Z,70.07
2023-03-01T02:33:18.646Z,69.82
2023-03-01T02:34:18.619Z,69.86
2023-03-01T02:35:18.589Z,70.04
2023-03-01T02:36:18.587Z,70.07
2023-03-01T02:37:18.565Z,69.34
2023-03-01T02:38:18.556Z,69.34
2023-03-01T02:39:18.586Z,69.13
2023-03-01T02:40:18.545Z,68.92
2023-03-01T02:41:18.541Z,68.53
2023-03-01T02:42:18.516Z,68.85
2023-03-01T02:43:18.504Z,68.25
2023-03-01T02:44:18.520Z,68.67
2023-03-01T02:45:18.481Z,68.49
2023-03-01T02:46:18.605Z,69.09
2023-03-01T02:47:18.466Z,69.12
2023-03-01T02:48:18.449Z,69.43
2023-03-01T02:49:18.480Z,70.27
2023-03-01T02:50:18.432Z,70.37
2023-03-01T02:51:18.414Z,70.20
2023-03-01T02:52:18.411Z,70.48
2023-03-01T02:53:18.405Z,71.24
2023-03-01T02:54:18.417Z,71.56
2023-03-01T02:55:18.401Z,71.77
2023-03-01T02:56:18.372Z,71.97
2023-03-01T02:57:18.362Z,72.25
2023-03-01T02:58:18.351Z,71.94
2023-03-01T02:59:18.350Z,72.50
2023-03-01T03:00:18.328Z,72.60
2023-03-01T03:01:18.420Z,72.25
2023-03-01T03:02:18.301Z,72.25
2023-03-01T03:03:18.313Z,72.47
2023-03-01T03:04:18.302Z,72.78
2023-03-01T03:05:18.289Z,72.53
2023-03-01T03:06:18.265Z,72.43
2023-03-01T03:07:18.267Z,72.75
2023-03-01T03:08:18.273Z,71.91
2023-03-01T03:09:18.268Z,71.98
2023-03-01T03:10:18.231Z,71.98
2023-03-01T03:11:18.210Z,71.98
2023-03-01T03:12:18.199Z,72.08
2023-03-01T03:13:18.190Z,71.98
2023-03-01T03:14:18.213Z,72.08
2023-03-01T03:15:18.164Z,72.19
2023-03-01T03:16:18.213Z,72.30
2023-03-01T03:17:18.147Z,72.08
2023-03-01T03:18:18.131Z,71.56
2023-03-01T03:19:18.150Z,71.67
2023-03-01T03:20:18.113Z,71.88
2023-03-01T03:21:18.122Z,71.46
2023-03-01T03:22:18.095Z,71.32
2023-03-01T03:23:18.082Z,71.14
2023-03-01T03:24:18.084Z,71.14
2023-03-01T03:25:18.075Z,71.56
2023-03-01T03:26:18.047Z,71.04
2023-03-01T03:27:18.044Z,71.36
2023-03-01T03:28:18.047Z,71.36
2023-03-01T03:29:18.030Z,71.36
2023-03-01T03:30:18.010Z,71.25
2023-03-01T03:31:18.027Z,70.03
2023-03-01T03:32:18.007Z,68.77
2023-03-01T03:33:17.971Z,69.12
2023-03-01T03:34:18.026Z,69.74
2023-03-01T03:35:17.950Z,69.54
2023-03-01T03:36:17.946Z,69.95
2023-03-01T03:37:17.950Z,70.17
2023-03-01T03:38:18.002Z,70.06
2023-03-01T03:39:20.576Z,70.27
2023-03-01T03:40:17.902Z,70.09
2023-03-01T03:41:17.887Z,70.20
2023-03-01T03:42:17.886Z,69.99
2023-03-01T03:43:17.867Z,70.20
2023-03-01T03:44:17.878Z,69.95
2023-03-01T03:45:17.845Z,69.64
2023-03-01T03:46:17.840Z,70.79
2023-03-01T03:47:17.821Z,71.00
2023-03-01T03:48:17.814Z,71.11
2023-03-01T03:49:17.801Z,71.21
2023-03-01T03:50:17.828Z,71.11
2023-03-01T03:51:17.784Z,71.11
2023-03-01T03:52:17.770Z,71.59
2023-03-01T03:53:17.786Z,71.28
2023-03-01T03:54:17.760Z,71.62
2023-03-01T03:55:17.758Z,71.80
2023-03-01T03:56:17.728Z,71.70
2023-03-01T03:57:17.751Z,71.80
2023-03-01T03:58:17.705Z,71.49
2023-03-01T03:59:17.698Z,71.59
2023-03-01T04:00:17.711Z,71.28
2023-03-01T04:01:17.785Z,71.80
2023-03-01T04:02:17.691Z,72.12
2023-03-01T04:03:17.657Z,72.22
2023-03-01T04:04:17.651Z,72.12
2023-03-01T04:05:17.648Z,72.22
2023-03-01T04:06:17.641Z,72.22
2023-03-01T04:07:17.632Z,72.22
2023-03-01T04:08:17.606Z,72.12
2023-03-01T04:09:17.623Z,72.02
2023-03-01T04:10:17.599Z,71.80
2023-03-01T04:11:17.572Z,71.91
2023-03-01T04:12:17.561Z,71.91
2023-03-01T04:13:17.552Z,71.91
2023-03-01T04:14:17.542Z,71.80
2023-03-01T04:15:17.552Z,71.91
2023-03-01T04:16:17.590Z,72.33
2023-03-01T04:17:17.516Z,72.53
2023-03-01T04:18:17.503Z,72.53
2023-03-01T04:19:17.499Z,72.30
2023-03-01T04:20:17.488Z,72.33
2023-03-01T04:21:17.465Z,72.43
2023-03-01T04:22:17.457Z,72.19
2023-03-01T04:23:17.439Z,72.50
2023-03-01T04:24:17.445Z,72.19
2023-03-01T04:25:17.459Z,72.19
2023-03-01T04:26:17.413Z,72.61
2023-03-01T04:27:17.403Z,72.19
2023-03-01T04:28:17.393Z,72.08
2023-03-01T04:29:17.380Z,71.77
2023-03-01T04:30:17.394Z,72.02
2023-03-01T04:31:17.454Z,72.33
2023-03-01T04:32:17.536Z,72.12
2023-03-01T04:33:17.336Z,71.70
2023-03-01T04:34:17.352Z,71.80
2023-03-01T04:35:17.355Z,71.59
2023-03-01T04:36:17.438Z,71.70
2023-03-01T04:37:17.303Z,71.18
2023-03-01T04:38:17.290Z,71.39
2023-03-01T04:39:17.297Z,71.18
2023-03-01T04:40:17.350Z,71.70
2023-03-01T04:41:17.278Z,71.59
2023-03-01T04:42:17.252Z,71.70
2023-03-01T04:43:17.238Z,72.02
2023-03-01T04:44:17.251Z,72.33
2023-03-01T04:45:17.242Z,72.15
2023-03-01T04:46:17.288Z,72.33
2023-03-01T04:47:17.200Z,71.80
2023-03-01T04:48:17.184Z,71.80
2023-03-01T04:49:17.167Z,72.43
2023-03-01T04:50:17.254Z,72.43
2023-03-01T04:51:17.163Z,72.22
2023-03-01T04:52:17.144Z,72.43
2023-03-01T04:53:17.130Z,72.75
2023-03-01T04:54:17.124Z,73.27
2023-03-01T04:55:17.113Z,72.75
2023-03-01T04:56:17.109Z,73.47
2023-03-01T04:57:17.107Z,73.69
2023-03-01T04:58:17.084Z,74.31
2023-03-01T04:59:17.062Z,73.79
2023-03-01T05:00:17.073Z,73.58
2023-03-01T05:01:17.081Z,73.58
2023-03-01T05:02:17.034Z,72.85
2023-03-01T05:03:17.023Z,72.96
2023-03-01T05:04:17.074Z,72.85
2023-03-01T05:05:17.040Z,73.69
2023-03-01T05:06:16.999Z,73.37
2023-03-01T05:07:16.977Z,72.96
2023-03-01T05:08:16.973Z,73.06
2023-03-01T05:09:16.962Z,72.43
2023-03-01T05:10:16.983Z,72.22
2023-03-01T05:11:16.955Z,72.43
2023-03-01T05:12:16.931Z,72.67
2023-03-01T05:13:16.939Z,72.88
2023-03-01T05:14:16.908Z,72.99
2023-03-01T05:15:16.918Z,73.30
2023-03-01T05:16:16.920Z,73.51
2023-03-01T05:17:16.875Z,73.72
2023-03-01T05:18:16.863Z,73.41
2023-03-01T05:19:16.859Z,73.51
2023-03-01T05:20:16.871Z,73.82
2023-03-01T05:21:16.919Z,73.41
2023-03-01T05:22:16.828Z,73.41
2023-03-01T05:23:16.818Z,73.61
2023-03-01T05:24:16.807Z,73.41
2023-03-01T05:25:16.807Z,73.41
2023-03-01T05:26:27.825Z,73.61
2023-03-01T05:27:17.773Z,74.04
2023-03-01T05:28:16.757Z,73.51
2023-03-01T05:29:16.765Z,73.30
2023-03-01T05:30:16.749Z,72.60
2023-03-01T05:31:16.815Z,71.87
2023-03-01T05:32:16.937Z,72.25
2023-03-01T05:33:16.712Z,72.19
2023-03-01T05:34:16.700Z,71.97
2023-03-01T05:35:16.704Z,71.97
2023-03-01T05:36:16.673Z,72.60
2023-03-01T05:37:16.663Z,72.50
2023-03-01T05:38:16.657Z,72.39
2023-03-01T05:39:16.650Z,72.29
2023-03-01T05:40:16.691Z,72.71
2023-03-01T05:41:16.622Z,73.23
2023-03-01T05:42:16.612Z,73.33
2023-03-01T05:43:16.607Z,74.27
2023-03-01T05:44:16.595Z,72.81
2023-03-01T05:45:16.609Z,73.33
2023-03-01T05:46:16.654Z,73.44
2023-03-01T05:47:16.556Z,73.33
2023-03-01T05:48:16.553Z,74.17
2023-03-01T05:49:16.536Z,73.82
2023-03-01T05:50:16.535Z,74.49
2023-03-01T05:51:16.525Z,74.17
2023-03-01T05:52:16.508Z,74.07
2023-03-01T05:53:16.494Z,74.59
2023-03-01T05:54:16.484Z,74.66
2023-03-01T05:55:16.485Z,74.24
2023-03-01T05:56:16.469Z,74.80
2023-03-01T05:57:16.453Z,74.87
2023-03-01T05:58:16.446Z,74.76
2023-03-01T05:59:16.435Z,74.87
2023-03-01T06:00:16.578Z,74.76
2023-03-01T06:01:16.430Z,74.35
2023-03-01T06:02:16.403Z,74.52
2023-03-01T06:03:16.395Z,74.31
2023-03-01T06:04:16.509Z,74.42
2023-03-01T06:05:16.448Z,74.63
2023-03-01T06:06:16.382Z,74.21
2023-03-01T06:07:16.361Z,74.10
2023-03-01T06:08:16.341Z,74.18
2023-03-01T06:09:16.332Z,73.72
2023-03-01T06:10:16.351Z,73.52
2023-03-01T06:11:16.308Z,73.58
2023-03-01T06:12:16.298Z,73.17
2023-03-01T06:13:16.289Z,72.72
2023-03-01T06:14:16.282Z,72.27
2023-03-01T06:15:16.281Z,72.06
2023-03-01T06:16:16.396Z,71.50
2023-03-01T06:17:16.272Z,71.30
2023-03-01T06:18:16.242Z,70.67
2023-03-01T06:19:16.245Z,69.84
2023-03-01T06:20:16.225Z,69.59
2023-03-01T06:21:16.205Z,69.07
2023-03-01T06:22:16.206Z,68.79
2023-03-01T06:23:16.201Z,69.00
2023-03-01T06:24:16.176Z,68.90
2023-03-01T06:25:16.181Z,69.00
2023-03-01T06:26:16.158Z,68.17
2023-03-01T06:27:16.146Z,68.48
2023-03-01T06:28:16.177Z,68.27
2023-03-01T06:29:16.148Z,67.85
2023-03-01T06:30:16.124Z,68.35
2023-03-01T06:31:16.158Z,67.93
2023-03-01T06:32:16.224Z,68.03
2023-03-01T06:33:16.107Z,68.35
2023-03-01T06:34:16.065Z,67.79
2023-03-01T06:35:16.072Z,67.55
2023-03-01T06:36:16.044Z,67.83
2023-03-01T06:37:16.035Z,66.35
2023-03-01T06:38:16.018Z,66.53
2023-03-01T06:39:16.013Z,65.69
2023-03-01T06:40:16.049Z,65.14
2023-03-01T06:41:15.996Z,65.53
2023-03-01T06:42:15.985Z,64.77
2023-03-01T06:43:15.971Z,64.54
2023-03-01T06:44:15.964Z,63.68
2023-03-01T06:45:15.972Z,62.40
2023-03-01T06:46:16.055Z,62.19
2023-03-01T06:47:15.927Z,62.61
2023-03-01T06:48:15.915Z,61.68
2023-03-01T06:49:15.927Z,62.16
2023-03-01T06:50:15.968Z,61.16
2023-03-01T06:51:15.883Z,60.30
2023-03-01T06:52:15.885Z,59.89
2023-03-01T06:53:15.864Z,60.27
2023-03-01T06:54:15.850Z,60.48
2023-03-01T06:55:15.854Z,60.35
2023-03-01T06:56:15.835Z,59.52
2023-03-01T06:57:15.815Z,58.98
2023-03-01T06:58:15.806Z,58.87
2023-03-01T06:59:15.792Z,57.60
2023-03-01T07:00:15.792Z,57.79
2023-03-01T07:01:15.850Z,57.34
2023-03-01T07:02:15.761Z,57.01
2023-03-01T07:03:15.745Z,55.98
2023-03-01T07:04:15.740Z,55.51
2023-03-01T07:05:15.760Z,55.28
2023-03-01T07:06:15.712Z,54.46
2023-03-01T07:07:15.708Z,54.41
2023-03-01T07:08:15.694Z,54.10
2023-03-01T07:09:15.681Z,52.63
2023-03-01T07:10:15.670Z,52.89
2023-03-01T07:11:15.693Z,52.97
2023-03-01T07:12:15.654Z,51.71
2023-03-01T07:13:15.637Z,51.04
2023-03-01T07:14:15.625Z,50.43
2023-03-01T07:15:15.614Z,49.89
2023-03-01T07:16:15.784Z,49.26
2023-03-01T07:17:15.594Z,48.82
2023-03-01T07:18:15.583Z,48.80
2023-03-01T07:19:15.581Z,48.98
2023-03-01T07:20:15.558Z,48.24
2023-03-01T07:21:15.594Z,48.03
2023-03-01T07:22:15.543Z,48.24
2023-03-01T07:23:15.529Z,48.01
2023-03-01T07:24:15.517Z,47.60
2023-03-01T07:25:15.506Z,47.38
2023-03-01T07:26:15.521Z,48.09
2023-03-01T07:27:15.495Z,47.45
2023-03-01T07:28:15.472Z,46.31
2023-03-01T07:29:15.467Z,46.80
2023-03-01T07:30:15.457Z,46.80
2023-03-01T07:31:15.460Z,46.70
2023-03-01T07:32:15.539Z,46.59
2023-03-01T07:33:15.438Z,46.67
2023-03-01T07:34:15.408Z,47.08
2023-03-01T07:35:15.397Z,46.78
2023-03-01T07:36:15.394Z,46.88
2023-03-01T07:37:15.395Z,46.55
2023-03-01T07:38:15.367Z,47.37
2023-03-01T07:39:15.354Z,46.63
2023-03-01T07:40:15.342Z,46.63
2023-03-01T07:41:15.355Z,46.30
2023-03-01T07:42:15.323Z,45.98
2023-03-01T07:43:15.307Z,45.57
2023-03-01T07:44:15.295Z,45.75
2023-03-01T07:45:15.296Z,45.32
2023-03-01T07:46:15.288Z,45.63
2023-03-01T07:47:15.264Z,45.10
2023-03-01T07:48:15.258Z,44.97
2023-03-01T07:49:15.246Z,44.97
2023-03-01T07:50:15.228Z,45.07
2023-03-01T07:51:15.249Z,44.06
2023-03-01T07:52:15.238Z,44.04
2023-03-01T07:53:15.217Z,43.53
2023-03-01T07:54:15.188Z,43.32
2023-03-01T07:55:15.176Z,43.93
2023-03-01T07:56:15.189Z,43.51
2023-03-01T07:57:15.159Z,43.91
2023-03-01T07:58:15.144Z,43.51
2023-03-01T07:59:15.163Z,43.61
2023-03-01T08:00:15.126Z,43.53
2023-03-01T08:01:15.131Z,44.45
2023-03-01T08:02:15.177Z,44.04
2023-03-01T08:03:17.026Z,44.02
2023-03-01T08:04:15.080Z,44.20
2023-03-01T08:05:15.071Z,43.69
2023-03-01T08:06:15.086Z,43.99
2023-03-01T08:07:15.058Z,43.47
2023-03-01T08:08:15.036Z,42.74
2023-03-01T08:09:15.042Z,42.63
2023-03-01T08:10:15.012Z,43.02
2023-03-01T08:11:15.026Z,41.70
2023-03-01T08:12:15.004Z,41.07
2023-03-01T08:13:14.981Z,41.16
2023-03-01T08:14:14.974Z,40.31
2023-03-01T08:15:14.957Z,39.39
2023-03-01T08:16:14.988Z,39.39
2023-03-01T08:17:14.932Z,39.62
2023-03-01T08:18:14.924Z,39.53
2023-03-01T08:19:14.911Z,39.64
2023-03-01T08:20:14.900Z,39.84
2023-03-01T08:21:14.958Z,39.84
2023-03-01T08:22:14.881Z,40.65
2023-03-01T08:23:14.868Z,40.53
2023-03-01T08:24:14.950Z,39.72
2023-03-01T08:25:14.877Z,39.51
2023-03-01T08:26:14.917Z,39.90
2023-03-01T08:27:14.831Z,39.62
2023-03-01T08:28:14.819Z,39.70
2023-03-01T08:29:14.799Z,38.62
2023-03-01T08:30:14.801Z,39.53
2023-03-01T08:31:15.038Z,39.96
2023-03-01T08:32:14.939Z,40.59
2023-03-01T08:33:14.795Z,40.26
2023-03-01T08:34:14.804Z,39.87
2023-03-01T08:35:14.738Z,39.96
2023-03-01T08:36:14.758Z,40.97
2023-03-01T08:37:14.715Z,41.40
2023-03-01T08:38:14.713Z,40.38
2023-03-01T08:39:14.699Z,40.91
2023-03-01T08:40:14.689Z,41.40
2023-03-01T08:41:14.725Z,40.08
2023-03-01T08:42:14.663Z,39.53
2023-03-01T08:43:14.663Z,39.65
2023-03-01T08:44:14.682Z,39.73
2023-03-01T08:45:14.656Z,39.65
2023-03-01T08:46:14.718Z,38.52
2023-03-01T08:47:14.610Z,38.12
2023-03-01T08:48:14.600Z,38.62
2023-03-01T08:49:14.595Z,38.64
2023-03-01T08:50:14.589Z,37.73
2023-03-01T08:51:14.579Z,37.73
2023-03-01T08:52:14.563Z,37.61
2023-03-01T08:53:14.552Z,37.00
2023-03-01T08:54:14.631Z,36.71
2023-03-01T08:55:14.526Z,36.63
2023-03-01T08:56:14.532Z,37.15
2023-03-01T08:57:14.547Z,37.88
2023-03-01T08:58:14.493Z,37.70
2023-03-01T08:59:14.485Z,38.49
2023-03-01T09:00:14.471Z,37.26
2023-03-01T09:01:14.470Z,38.29
2023-03-01T09:02:14.515Z,37.88
2023-03-01T09:03:14.438Z,38.27
2023-03-01T09:04:14.441Z,37.15
2023-03-01T09:05:14.427Z,36.75
2023-03-01T09:06:14.424Z,36.02
2023-03-01T09:07:14.407Z,36.21
2023-03-01T09:08:14.461Z,35.61
2023-03-01T09:09:14.378Z,36.22
2023-03-01T09:10:14.369Z,36.32
2023-03-01T09:11:14.402Z,36.53
2023-03-01T09:12:14.346Z,37.34
2023-03-01T09:13:14.355Z,36.85
2023-03-01T09:14:14.333Z,37.26
2023-03-01T09:15:14.322Z,36.90
2023-03-01T09:16:14.409Z,38.02
2023-03-01T09:17:14.293Z,38.00
2023-03-01T09:18:14.282Z,37.27
2023-03-01T09:19:14.289Z,36.65
2023-03-01T09:20:14.260Z,36.43
2023-03-01T09:21:14.273Z,34.65
2023-03-01T09:22:14.242Z,34.84
2023-03-01T09:23:14.226Z,33.83
2023-03-01T09:24:14.222Z,35.04
2023-03-01T09:25:14.206Z,34.72
2023-03-01T09:26:14.215Z,33.80
2023-03-01T09:27:14.194Z,34.09
2023-03-01T09:28:28.895Z,34.09
2023-03-01T09:29:15.186Z,33.39
2023-03-01T09:30:14.184Z,33.49
2023-03-01T09:31:14.225Z,32.79
2023-03-01T09:32:14.168Z,33.40
2023-03-01T09:33:14.126Z,32.88
2023-03-01T09:34:14.111Z,33.39
2023-03-01T09:35:22.126Z,32.24
2023-03-01T09:36:14.109Z,31.94
2023-03-01T09:37:14.112Z,32.14
2023-03-01T09:38:14.065Z,32.23
2023-03-01T09:39:14.054Z,32.03
2023-03-01T09:40:14.047Z,31.93
2023-03-01T09:41:14.044Z,32.85
2023-03-01T09:42:14.032Z,32.03
2023-03-01T09:43:14.011Z,32.65
2023-03-01T09:44:14.001Z,33.07
2023-03-01T09:45:14.017Z,33.07
2023-03-01T09:46:14.041Z,32.28
2023-03-01T09:47:13.999Z,31.67
2023-03-01T09:48:13.963Z,31.65
2023-03-01T09:49:13.949Z,32.26
2023-03-01T09:50:13.945Z,31.73
2023-03-01T09:51:13.925Z,32.11
2023-03-01T09:52:13.975Z,31.91
2023-03-01T09:53:13.905Z,31.07
2023-03-01T09:54:13.900Z,31.06
2023-03-01T09:55:13.884Z,30.96
2023-03-01T09:56:13.905Z,30.84
2023-03-01T09:57:13.866Z,30.93
2023-03-01T09:58:13.859Z,30.32
2023-03-01T09:59:13.840Z,30.14
2023-03-01T10:00:13.849Z,30.02
2023-03-01T10:01:13.857Z,29.82
2023-03-01T10:02:13.812Z,29.72
2023-03-01T10:03:13.812Z,30.01
2023-03-01T10:04:14.055Z,28.90
2023-03-01T10:05:13.807Z,28.89
2023-03-01T10:06:21.243Z,28.88
2023-03-01T10:07:14.765Z,29.06
2023-03-01T10:08:13.767Z,28.24
2023-03-01T10:09:13.736Z,27.95
2023-03-01T10:10:13.728Z,27.95
2023-03-01T10:11:13.718Z,28.17
2023-03-01T10:12:13.741Z,29.58
2023-03-01T10:13:13.701Z,28.97
2023-03-01T10:14:13.692Z,28.88
2023-03-01T10:15:13.719Z,28.76
2023-03-01T10:16:13.678Z,27.86
2023-03-01T10:17:13.693Z,28.67
2023-03-01T10:18:13.646Z,28.86
2023-03-01T10:19:13.632Z,29.06
2023-03-01T10:20:13.631Z,28.97
2023-03-01T10:21:13.613Z,28.44
2023-03-01T10:22:13.614Z,28.56
2023-03-01T10:23:13.595Z,28.27
2023-03-01T10:24:13.587Z,29.57
2023-03-01T10:25:13.592Z,28.34
2023-03-01T10:26:13.573Z,28.23
2023-03-01T10:27:13.613Z,28.96
2023-03-01T10:28:13.540Z,28.88
2023-03-01T10:29:13.532Z,28.88
2023-03-01T10:30:13.535Z,29.39
2023-03-01T10:31:13.560Z,28.69
2023-03-01T10:32:13.612Z,28.07
2023-03-01T10:33:13.636Z,28.57
2023-03-01T10:34:13.480Z,29.26
2023-03-01T10:35:13.471Z,28.07
2023-03-01T10:36:13.463Z,28.38
2023-03-01T10:37:13.460Z,28.18
2023-03-01T10:38:13.446Z,28.27
2023-03-01T10:39:13.431Z,28.91
2023-03-01T10:40:13.417Z,28.90
2023-03-01T10:41:13.411Z,29.72
2023-03-01T10:42:13.411Z,30.04
2023-03-01T10:43:13.390Z,28.84
2023-03-01T10:44:13.377Z,29.46
2023-03-01T10:45:13.371Z,29.88
2023-03-01T10:46:13.438Z,31.10
2023-03-01T10:47:13.370Z,30.94
2023-03-01T10:48:13.353Z,30.67
2023-03-01T10:49:13.467Z,31.61
2023-03-01T10:50:13.319Z,33.91
2023-03-01T10:51:13.308Z,34.22
2023-03-01T10:52:13.317Z,35.19
2023-03-01T10:53:13.300Z,35.44
2023-03-01T10:54:13.350Z,37.31
2023-03-01T10:55:13.269Z,39.28
2023-03-01T10:56:13.260Z,38.89
2023-03-01T10:57:13.288Z,38.73
2023-03-01T10:58:13.278Z,38.83
2023-03-01T10:59:13.229Z,39.78
2023-03-01T11:00:13.213Z,40.09
2023-03-01T11:01:13.235Z,39.58
2023-03-01T11:02:23.838Z,40.11
2023-03-01T11:03:14.189Z,40.40
2023-03-01T11:04:13.170Z,40.01
2023-03-01T11:05:13.186Z,41.46
2023-03-01T11:06:13.158Z,41.46
2023-03-01T11:07:13.158Z,42.40
2023-03-01T11:08:13.128Z,41.99
2023-03-01T11:09:13.162Z,40.66
2023-03-01T11:10:13.107Z,41.91
2023-03-01T11:11:13.108Z,42.32
2023-03-01T11:12:13.113Z,42.83
2023-03-01T11:13:13.089Z,42.85
2023-03-01T11:14:25.843Z,42.54
2023-03-01T11:15:14.049Z,42.44
2023-03-01T11:16:13.107Z,42.34
2023-03-01T11:17:13.051Z,42.85
2023-03-01T11:18:14.433Z,42.36
2023-03-01T11:19:13.014Z,42.36
2023-03-01T11:20:13.004Z,42.56
2023-03-01T11:21:13.020Z,42.65
2023-03-01T11:22:13.114Z,42.65
2023-03-01T11:23:12.964Z,42.44
2023-03-01T11:24:12.950Z,42.85
2023-03-01T11:25:12.973Z,42.34
2023-03-01T11:26:13.217Z,41.93
2023-03-01T11:27:12.937Z,42.46
2023-03-01T11:28:12.906Z,42.75
2023-03-01T11:29:12.903Z,42.66
2023-03-01T11:30:12.894Z,43.38
2023-03-01T11:31:12.993Z,42.87
2023-03-01T11:32:13.010Z,42.87
2023-03-01T11:33:12.927Z,43.40
2023-03-01T11:34:12.843Z,44.12
2023-03-01T11:35:12.838Z,44.41
2023-03-01T11:36:12.833Z,43.71
2023-03-01T11:37:12.840Z,43.40
2023-03-01T11:38:12.806Z,43.51
2023-03-01T11:39:12.783Z,42.99
2023-03-01T11:40:12.774Z,42.89
2023-03-01T11:41:12.759Z,42.58
2023-03-01T11:42:18.588Z,43.10
2023-03-01T11:43:13.833Z,42.89
2023-03-01T11:44:12.740Z,42.79
2023-03-01T11:45:12.716Z,42.58
2023-03-01T11:46:12.934Z,42.48
2023-03-01T11:47:12.864Z,43.20
2023-03-01T11:48:12.764Z,43.52
2023-03-01T11:49:12.690Z,43.40
2023-03-01T11:50:12.662Z,43.12
2023-03-01T11:51:12.653Z,43.40
2023-03-01T11:52:12.651Z,42.40
2023-03-01T11:53:12.651Z,42.40
2023-03-01T11:54:12.670Z,42.38
2023-03-01T11:55:12.614Z,42.50
2023-03-01T11:56:12.595Z,43.42
2023-03-01T11:57:12.624Z,43.32
2023-03-01T11:58:12.573Z,42.91
2023-03-01T11:59:12.572Z,42.58
2023-03-01T12:00:12.563Z,42.48
2023-03-01T12:01:12.545Z,42.91
2023-03-01T12:02:12.641Z,42.91
2023-03-01T12:03:12.536Z,42.71
2023-03-01T12:04:12.573Z,42.48
2023-03-01T12:05:12.505Z,42.48
2023-03-01T12:06:12.486Z,42.17
2023-03-01T12:07:12.506Z,41.99
2023-03-01T12:08:12.473Z,41.88
2023-03-01T12:09:12.478Z,41.37
2023-03-01T12:10:12.450Z,40.86
2023-03-01T12:11:12.444Z,40.75
2023-03-01T12:12:12.435Z,41.78
2023-03-01T12:13:12.412Z,41.78
2023-03-01T12:14:12.404Z,40.86
2023-03-01T12:15:12.397Z,41.47
2023-03-01T12:16:12.416Z,41.06
2023-03-01T12:17:12.470Z,41.27
2023-03-01T12:18:12.369Z,40.63
2023-03-01T12:19:12.346Z,39.92
2023-03-01T12:20:12.363Z,39.92
2023-03-01T12:21:12.325Z,39.50
2023-03-01T12:22:12.346Z,39.30
2023-03-01T12:23:20.389Z,39.62
2023-03-01T12:24:13.290Z,40.01
2023-03-01T12:25:12.307Z,40.34
2023-03-01T12:26:13.421Z,39.92
2023-03-01T12:27:12.290Z,40.24
2023-03-01T12:28:12.248Z,40.55
2023-03-01T12:29:12.247Z,40.45
2023-03-01T12:30:12.249Z,40.03
2023-03-01T12:31:12.272Z,40.75
2023-03-01T12:32:12.358Z,39.94
2023-03-01T12:33:20.232Z,40.12
2023-03-01T12:34:12.181Z,39.09
2023-03-01T12:35:12.173Z,39.42
2023-03-01T12:36:12.222Z,39.01
2023-03-01T12:37:12.183Z,38.81
2023-03-01T12:38:12.138Z,39.52
2023-03-01T12:39:12.137Z,39.01
2023-03-01T12:40:12.144Z,39.62
2023-03-01T12:41:12.155Z,39.73
2023-03-01T12:42:12.110Z,39.52
2023-03-01T12:43:12.105Z,39.42
2023-03-01T12:44:12.077Z,38.90
2023-03-01T12:45:12.071Z,39.50
2023-03-01T12:46:12.111Z,39.61
2023-03-01T12:47:12.066Z,39.09
2023-03-01T12:48:12.036Z,39.09
2023-03-01T12:49:12.038Z,39.40
2023-03-01T12:50:12.008Z,40.33
2023-03-01T12:51:12.004Z,39.09
2023-03-01T12:52:11.997Z,39.50